sensor_id;sensor_type;location;lat;lon;timestamp;pressure;altitude;pressure_sealevel;temperature;humidity
69667;BME280;66534;52.370;4.832;2023-04-06T00:00:12;101811.34;;;7.26;100.00
69667;BME280;66534;52.370;4.832;2023-04-06T00:00:44;101806.22;;;7.18;100.00
69667;BME280;66534;52.370;4.832;2023-04-06T00:01:14;101808.03;;;7.14;100.00
69667;BME280;66534;52.370;4.832;2023-04-06T00:01:45;101800.75;;;7.35;100.00
69667;BME280;66534;52.370;4.832;2023-04-06T00:02:17;101807.06;;;7.21;100.00
69667;BME280;66534;52.370;4.832;2023-04-06T00:02:47;101806.22;;;7.18;100.00
69667;BME280;66534;52.370;4.832;2023-04-06T00:03:17;101808.13;;;7.08;100.00
69667;BME280;66534;52.370;4.832;2023-04-06T00:03:48;101804.59;;;7.12;100.00
69667;BME280;66534;52.370;4.832;2023-04-06T00:04:18;101806.34;;;7.10;100.00
69667;BME280;66534;52.370;4.832;2023-04-06T00:04:49;101801.75;;;7.28;100.00
69667;BME280;66534;52.370;4.832;2023-04-06T00:05:20;101802.53;;;7.33;100.00
69667;BME280;66534;52.370;4.832;2023-04-06T00:05:52;101796.69;;;7.17;100.00
69667;BME280;66534;52.370;4.832;2023-04-06T00:06:23;101805.91;;;7.39;100.00
69667;BME280;66534;52.370;4.832;2023-04-06T00:06:53;101799.91;;;7.34;100.00
69667;BME280;66534;52.370;4.832;2023-04-06T00:07:24;101800.00;;;7.27;100.00
69667;BME280;66534;52.370;4.832;2023-04-06T00:07:54;101802.34;;;7.45;100.00
69667;BME280;66534;52.370;4.832;2023-04-06T00:08:26;101792.66;;;7.53;100.00
69667;BME280;66534;52.370;4.832;2023-04-06T00:08:56;101793.69;;;7.41;100.00
69667;BME280;66534;52.370;4.832;2023-04-06T00:09:27;101799.53;;;7.56;100.00
69667;BME280;66534;52.370;4.832;2023-04-06T00:09:58;101801.50;;;7.43;100.00
69667;BME280;66534;52.370;4.832;2023-04-06T00:10:28;101799.81;;;7.39;100.00
69667;BME280;66534;52.370;4.832;2023-04-06T00:10:58;101793.78;;;7.35;100.00
69667;BME280;66534;52.370;4.832;2023-04-06T00:11:29;101796.19;;;7.47;100.00
69667;BME280;66534;52.370;4.832;2023-04-06T00:11:59;101797.13;;;7.45;100.00
69667;BME280;66534;52.370;4.832;2023-04-06T00:12:30;101800.09;;;7.23;100.00
69667;BME280;66534;52.370;4.832;2023-04-06T00:13:00;101796.41;;;7.35;100.00
69667;BME280;66534;52.370;4.832;2023-04-06T00:13:31;101802.63;;;7.27;100.00
69667;BME280;66534;52.370;4.832;2023-04-06T00:14:01;101795.47;;;7.39;100.00
69667;BME280;66534;52.370;4.832;2023-04-06T00:14:31;101796.38;;;7.37;100.00
69667;BME280;66534;52.370;4.832;2023-04-06T00:15:02;101794.53;;;7.45;100.00
69667;BME280;66534;52.370;4.832;2023-04-06T00:15:34;101795.19;;;7.58;100.00
69667;BME280;66534;52.370;4.832;2023-04-06T00:16:05;101788.28;;;7.52;100.00
69667;BME280;66534;52.370;4.832;2023-04-06T00:16:36;101795.91;;;7.64;100.00
69667;BME280;66534;52.370;4.832;2023-04-06T00:17:06;101790.03;;;7.52;100.00
69667;BME280;66534;52.370;4.832;2023-04-06T00:17:36;101790.03;;;7.53;100.00
69667;BME280;66534;52.370;4.832;2023-04-06T00:18:07;101784.78;;;7.55;100.00
69667;BME280;66534;52.370;4.832;2023-04-06T00:18:37;101787.53;;;7.45;100.00
69667;BME280;66534;52.370;4.832;2023-04-06T00:19:08;101782.31;;;7.45;100.00
69667;BME280;66534;52.370;4.832;2023-04-06T00:19:38;101791.25;;;7.32;100.00
69667;BME280;66534;52.370;4.832;2023-04-06T00:20:08;101791.22;;;7.34;100.00
69667;BME280;66534;52.370;4.832;2023-04-06T00:20:39;101788.72;;;7.26;100.00
69667;BME280;66534;52.370;4.832;2023-04-06T00:21:13;101790.44;;;7.27;100.00
69667;BME280;66534;52.370;4.832;2023-04-06T00:21:44;101785.91;;;7.40;100.00
69667;BME280;66534;52.370;4.832;2023-04-06T00:22:15;101783.22;;;7.44;100.00
69667;BME280;66534;52.370;4.832;2023-04-06T00:22:45;101780.06;;;7.22;100.00
69667;BME280;66534;52.370;4.832;2023-04-06T00:23:16;101779.47;;;7.05;100.00
69667;BME280;66534;52.370;4.832;2023-04-06T00:23:47;101786.28;;;7.14;100.00
69667;BME280;66534;52.370;4.832;2023-04-06T00:24:17;101787.16;;;7.14;100.00
69667;BME280;66534;52.370;4.832;2023-04-06T00:24:47;101782.00;;;7.11;100.00
69667;BME280;66534;52.370;4.832;2023-04-06T00:25:18;101783.84;;;7.03;100.00
69667;BME280;66534;52.370;4.832;2023-04-06T00:25:48;101783.94;;;6.98;100.00
69667;BME280;66534;52.370;4.832;2023-04-06T00:26:18;101780.53;;;6.92;100.00
69667;BME280;66534;52.370;4.832;2023-04-06T00:26:49;101777.03;;;6.94;100.00
69667;BME280;66534;52.370;4.832;2023-04-06T00:27:20;101780.53;;;6.92;100.00
69667;BME280;66534;52.370;4.832;2023-04-06T00:27:50;101770.00;;;6.99;100.00
69667;BME280;66534;52.370;4.832;2023-04-06T00:28:21;101780.41;;;7.03;100.00
69667;BME280;66534;52.370;4.832;2023-04-06T00:28:55;101778.53;;;7.11;100.00
69667;BME280;66534;52.370;4.832;2023-04-06T00:29:26;101778.38;;;7.18;100.00
69667;BME280;66534;52.370;4.832;2023-04-06T00:29:56;101778.47;;;7.15;100.00
69667;BME280;66534;52.370;4.832;2023-04-06T00:30:26;101771.25;;;7.30;100.00
69667;BME280;66534;52.370;4.832;2023-04-06T00:30:57;101780.25;;;7.12;100.00
69667;BME280;66534;52.370;4.832;2023-04-06T00:31:27;101776.91;;;7.02;100.00
69667;BME280;66534;52.370;4.832;2023-04-06T00:31:58;101775.91;;;7.11;100.00
69667;BME280;66534;52.370;4.832;2023-04-06T00:32:28;101782.09;;;7.02;100.00
69667;BME280;66534;52.370;4.832;2023-04-06T00:32:58;101774.28;;;7.02;100.00
69667;BME280;66534;52.370;4.832;2023-04-06T00:33:29;101774.25;;;7.05;100.00
69667;BME280;66534;52.370;4.832;2023-04-06T00:33:59;101774.22;;;7.08;100.00
69667;BME280;66534;52.370;4.832;2023-04-06T00:34:30;101776.00;;;7.05;100.00
69667;BME280;66534;52.370;4.832;2023-04-06T00:35:03;101775.09;;;7.06;100.00
69667;BME280;66534;52.370;4.832;2023-04-06T00:35:34;101774.25;;;7.05;100.00
69667;BME280;66534;52.370;4.832;2023-04-06T00:36:05;101768.09;;;7.11;100.00
69667;BME280;66534;52.370;4.832;2023-04-06T00:36:35;101769.97;;;7.03;100.00
69667;BME280;66534;52.370;4.832;2023-04-06T00:37:06;101774.09;;;7.14;100.00
69667;BME280;66534;52.370;4.832;2023-04-06T00:37:36;101766.94;;;7.29;100.00
69667;BME280;66534;52.370;4.832;2023-04-06T00:38:06;101772.09;;;7.33;100.00
69667;BME280;66534;52.370;4.832;2023-04-06T00:38:37;101766.09;;;7.28;100.00
69667;BME280;66534;52.370;4.832;2023-04-06T00:39:07;101767.00;;;7.22;100.00
69667;BME280;66534;52.370;4.832;2023-04-06T00:39:38;101767.06;;;7.21;100.00
69667;BME280;66534;52.370;4.832;2023-04-06T00:40:08;101760.84;;;7.28;100.00
69667;BME280;66534;52.370;4.832;2023-04-06T00:40:39;101765.81;;;7.43;100.00
69667;BME280;66534;52.370;4.832;2023-04-06T00:41:10;101764.06;;;7.44;100.00
69667;BME280;66534;52.370;4.832;2023-04-06T00:41:42;101758.06;;;7.39;100.00
69667;BME280;66534;52.370;4.832;2023-04-06T00:42:19;101762.38;;;7.41;100.00
69667;BME280;66534;52.370;4.832;2023-04-06T00:42:55;101759.06;;;7.32;100.00
69667;BME280;66534;52.370;4.832;2023-04-06T00:43:25;101759.03;;;7.33;100.00
69667;BME280;66534;52.370;4.832;2023-04-06T00:43:56;101754.59;;;7.40;100.00
69667;BME280;66534;52.370;4.832;2023-04-06T00:44:26;101758.09;;;7.37;100.00
69667;BME280;66534;52.370;4.832;2023-04-06T00:44:58;101756.09;;;7.52;100.00
69667;BME280;66534;52.370;4.832;2023-04-06T00:45:29;101762.63;;;7.26;100.00
69667;BME280;66534;52.370;4.832;2023-04-06T00:46:00;101760.94;;;7.22;100.00
69667;BME280;66534;52.370;4.832;2023-04-06T00:46:30;101749.69;;;7.20;100.00
69667;BME280;66534;52.370;4.832;2023-04-06T00:47:00;101757.19;;;7.40;100.00
69667;BME280;66534;52.370;4.832;2023-04-06T00:47:31;101754.78;;;7.26;100.00
69667;BME280;66534;52.370;4.832;2023-04-06T00:48:01;101757.97;;;7.43;100.00
69667;BME280;66534;52.370;4.832;2023-04-06T00:48:32;101760.50;;;7.48;100.00
69667;BME280;66534;52.370;4.832;2023-04-06T00:49:02;101751.03;;;7.42;100.00
69667;BME280;66534;52.370;4.832;2023-04-06T00:49:33;101752.16;;;7.28;100.00
69667;BME280;66534;52.370;4.832;2023-04-06T00:50:04;101750.34;;;7.31;100.00
69667;BME280;66534;52.370;4.832;2023-04-06T00:50:35;101752.91;;;7.36;100.00
69667;BME280;66534;52.370;4.832;2023-04-06T00:51:05;101756.38;;;7.35;100.00
69667;BME280;66534;52.370;4.832;2023-04-06T00:51:35;101747.88;;;7.23;100.00
69667;BME280;66534;52.370;4.832;2023-04-06T00:52:06;101754.03;;;7.18;100.00
69667;BME280;66534;52.370;4.832;2023-04-06T00:52:36;101753.16;;;7.19;100.00
69667;BME280;66534;52.370;4.832;2023-04-06T00:53:07;101741.56;;;7.35;100.00
69667;BME280;66534;52.370;4.832;2023-04-06T00:53:37;101747.03;;;7.21;100.00
69667;BME280;66534;52.370;4.832;2023-04-06T00:54:08;101746.03;;;7.30;100.00
69667;BME280;66534;52.370;4.832;2023-04-06T00:54:38;101751.16;;;7.36;100.00
69667;BME280;66534;52.370;4.832;2023-04-06T00:55:09;101747.31;;;7.56;100.00
69667;BME280;66534;52.370;4.832;2023-04-06T00:55:39;101744.50;;;7.68;100.00
69667;BME280;66534;52.370;4.832;2023-04-06T00:56:13;101746.59;;;7.49;100.00
69667;BME280;66534;52.370;4.832;2023-04-06T00:56:43;101744.38;;;7.23;100.00
69667;BME280;66534;52.370;4.832;2023-04-06T00:57:14;101743.53;;;7.22;100.00
69667;BME280;66534;52.370;4.832;2023-04-06T00:57:45;101739.25;;;7.18;100.00
69667;BME280;66534;52.370;4.832;2023-04-06T00:58:15;101747.72;;;7.33;100.00
69667;BME280;66534;52.370;4.832;2023-04-06T00:58:46;101745.78;;;7.45;100.00
69667;BME280;66534;52.370;4.832;2023-04-06T00:59:16;101750.31;;;7.34;100.00
69667;BME280;66534;52.370;4.832;2023-04-06T00:59:46;101744.25;;;7.32;100.00
69667;BME280;66534;52.370;4.832;2023-04-06T01:00:17;101740.66;;;7.39;100.00
69667;BME280;66534;52.370;4.832;2023-04-06T01:00:47;101742.50;;;7.33;100.00
69667;BME280;66534;52.370;4.832;2023-04-06T01:01:18;101740.78;;;7.32;100.00
69667;BME280;66534;52.370;4.832;2023-04-06T01:01:48;101740.75;;;7.33;100.00
69667;BME280;66534;52.370;4.832;2023-04-06T01:02:19;101744.06;;;7.43;100.00
69667;BME280;66534;52.370;4.832;2023-04-06T01:02:49;101737.28;;;7.33;100.00
69667;BME280;66534;52.370;4.832;2023-04-06T01:03:20;101734.34;;;7.51;100.00
69667;BME280;66534;52.370;4.832;2023-04-06T01:03:50;101731.44;;;7.69;100.00
69667;BME280;66534;52.370;4.832;2023-04-06T01:04:21;101734.13;;;7.63;100.00
69667;BME280;66534;52.370;4.832;2023-04-06T01:04:54;101736.88;;;7.56;100.00
69667;BME280;66534;52.370;4.832;2023-04-06T01:05:25;101738.88;;;7.41;100.00
69667;BME280;66534;52.370;4.832;2023-04-06T01:05:55;101735.69;;;7.24;100.00
69667;BME280;66534;52.370;4.832;2023-04-06T01:06:28;101733.16;;;7.19;100.00
69667;BME280;66534;52.370;4.832;2023-04-06T01:06:58;101735.56;;;7.32;100.00
69667;BME280;66534;52.370;4.832;2023-04-06T01:07:29;101728.19;;;7.55;100.00
69667;BME280;66534;52.370;4.832;2023-04-06T01:07:59;101732.47;;;7.59;100.00
69667;BME280;66534;52.370;4.832;2023-04-06T01:08:30;101727.28;;;7.56;100.00
69667;BME280;66534;52.370;4.832;2023-04-06T01:09:00;101730.25;;;7.38;100.00
69667;BME280;66534;52.370;4.832;2023-04-06T01:09:32;101729.50;;;7.30;100.00
69667;BME280;66534;52.370;4.832;2023-04-06T01:10:03;101730.41;;;7.29;100.00
69667;BME280;66534;52.370;4.832;2023-04-06T01:10:34;101729.63;;;7.22;100.00
69667;BME280;66534;52.370;4.832;2023-04-06T01:11:05;101726.25;;;7.17;100.00
69667;BME280;66534;52.370;4.832;2023-04-06T01:11:35;101727.94;;;7.19;100.00
69667;BME280;66534;52.370;4.832;2023-04-06T01:12:06;101728.03;;;7.15;100.00
69667;BME280;66534;52.370;4.832;2023-04-06T01:12:36;101719.31;;;7.16;100.00
69667;BME280;66534;52.370;4.832;2023-04-06T01:13:08;101724.53;;;7.16;100.00
69667;BME280;66534;52.370;4.832;2023-04-06T01:13:39;101731.34;;;7.23;100.00
69667;BME280;66534;52.370;4.832;2023-04-06T01:14:09;101727.94;;;7.18;100.00
69667;BME280;66534;52.370;4.832;2023-04-06T01:14:40;101722.81;;;7.13;100.00
69667;BME280;66534;52.370;4.832;2023-04-06T01:15:10;101721.19;;;7.06;100.00
69667;BME280;66534;52.370;4.832;2023-04-06T01:15:42;101721.13;;;7.11;100.00
69667;BME280;66534;52.370;4.832;2023-04-06T01:16:13;101722.94;;;7.06;100.00
69667;BME280;66534;52.370;4.832;2023-04-06T01:16:43;101725.59;;;7.03;100.00
69667;BME280;66534;52.370;4.832;2023-04-06T01:17:14;101727.28;;;7.07;100.00
69667;BME280;66534;52.370;4.832;2023-04-06T01:17:44;101723.00;;;7.03;100.00
69667;BME280;66534;52.370;4.832;2023-04-06T01:18:15;101720.97;;;7.18;100.00
69667;BME280;66534;52.370;4.832;2023-04-06T01:18:45;101716.50;;;7.28;100.00
69667;BME280;66534;52.370;4.832;2023-04-06T01:19:16;101721.00;;;7.17;100.00
69667;BME280;66534;52.370;4.832;2023-04-06T01:19:46;101721.09;;;7.12;100.00
69667;BME280;66534;52.370;4.832;2023-04-06T01:20:19;101717.50;;;7.19;100.00
69667;BME280;66534;52.370;4.832;2023-04-06T01:20:49;101714.16;;;7.11;100.00
69667;BME280;66534;52.370;4.832;2023-04-06T01:21:20;101714.91;;;7.18;100.00
69667;BME280;66534;52.370;4.832;2023-04-06T01:21:51;101717.41;;;7.26;100.00
69667;BME280;66534;52.370;4.832;2023-04-06T01:22:23;101722.69;;;7.21;100.00
69667;BME280;66534;52.370;4.832;2023-04-06T01:22:54;101715.69;;;7.23;100.00
69667;BME280;66534;52.370;4.832;2023-04-06T01:23:24;101717.31;;;7.30;100.00
69667;BME280;66534;52.370;4.832;2023-04-06T01:23:54;101712.34;;;7.16;100.00
69667;BME280;66534;52.370;4.832;2023-04-06T01:24:25;101713.16;;;7.18;100.00
69667;BME280;66534;52.370;4.832;2023-04-06T01:24:55;101712.41;;;7.10;100.00
69667;BME280;66534;52.370;4.832;2023-04-06T01:25:26;101708.00;;;7.15;100.00
69667;BME280;66534;52.370;4.832;2023-04-06T01:25:57;101715.09;;;7.07;100.00
69667;BME280;66534;52.370;4.832;2023-04-06T01:26:27;101712.59;;;6.98;100.00
69667;BME280;66534;52.370;4.832;2023-04-06T01:26:59;101712.53;;;7.04;100.00
69667;BME280;66534;52.370;4.832;2023-04-06T01:27:31;101716.63;;;7.19;100.00
69667;BME280;66534;52.370;4.832;2023-04-06T01:28:01;101713.88;;;7.27;100.00
69667;BME280;66534;52.370;4.832;2023-04-06T01:28:32;101707.97;;;7.17;100.00
69667;BME280;66534;52.370;4.832;2023-04-06T01:29:02;101711.63;;;7.05;100.00
69667;BME280;66534;52.370;4.832;2023-04-06T01:29:33;101708.25;;;7.00;100.00
69667;BME280;66534;52.370;4.832;2023-04-06T01:30:03;101710.75;;;7.06;100.00
69667;BME280;66534;52.370;4.832;2023-04-06T01:30:34;101709.06;;;7.04;100.00
69667;BME280;66534;52.370;4.832;2023-04-06T01:31:08;101710.97;;;6.92;100.00
69667;BME280;66534;52.370;4.832;2023-04-06T01:31:39;101705.75;;;6.92;100.00
69667;BME280;66534;52.370;4.832;2023-04-06T01:32:09;101708.22;;;7.03;100.00
69667;BME280;66534;52.370;4.832;2023-04-06T01:32:40;101708.09;;;7.09;100.00
69667;BME280;66534;52.370;4.832;2023-04-06T01:33:11;101703.03;;;7.00;100.00
69667;BME280;66534;52.370;4.832;2023-04-06T01:33:41;101705.63;;;7.00;100.00
69667;BME280;66534;52.370;4.832;2023-04-06T01:34:11;101704.03;;;6.91;100.00
69667;BME280;66534;52.370;4.832;2023-04-06T01:34:42;101705.94;;;6.80;100.00
69667;BME280;66534;52.370;4.832;2023-04-06T01:35:12;101701.31;;;6.97;100.00
69667;BME280;66534;52.370;4.832;2023-04-06T01:35:43;101701.19;;;7.07;100.00
69667;BME280;66534;52.370;4.832;2023-04-06T01:36:13;101697.88;;;6.95;100.00
69667;BME280;66534;52.370;4.832;2023-04-06T01:36:45;101699.72;;;6.89;100.00
69667;BME280;66534;52.370;4.832;2023-04-06T01:37:15;101698.69;;;6.99;100.00
69667;BME280;66534;52.370;4.832;2023-04-06T01:37:46;101698.81;;;6.91;100.00
69667;BME280;66534;52.370;4.832;2023-04-06T01:38:16;101705.00;;;6.84;100.00
69667;BME280;66534;52.370;4.832;2023-04-06T01:38:46;101700.72;;;6.80;100.00
69667;BME280;66534;52.370;4.832;2023-04-06T01:39:17;101694.56;;;6.84;100.00
69667;BME280;66534;52.370;4.832;2023-04-06T01:39:48;101691.97;;;6.86;100.00
69667;BME280;66534;52.370;4.832;2023-04-06T01:40:18;101699.56;;;6.99;100.00
69667;BME280;66534;52.370;4.832;2023-04-06T01:40:48;101697.78;;;7.02;100.00
69667;BME280;66534;52.370;4.832;2023-04-06T01:41:19;101695.25;;;6.98;100.00
69667;BME280;66534;52.370;4.832;2023-04-06T01:41:50;101697.06;;;6.92;100.00
69667;BME280;66534;52.370;4.832;2023-04-06T01:42:20;101693.59;;;6.91;100.00
69667;BME280;66534;52.370;4.832;2023-04-06T01:42:50;101687.59;;;6.85;100.00
69667;BME280;66534;52.370;4.832;2023-04-06T01:43:21;101690.97;;;6.93;100.00
69667;BME280;66534;52.370;4.832;2023-04-06T01:43:52;101683.13;;;6.93;100.00
69667;BME280;66534;52.370;4.832;2023-04-06T01:44:24;101689.91;;;7.05;100.00
69667;BME280;66534;52.370;4.832;2023-04-06T01:44:55;101682.81;;;7.13;100.00
69667;BME280;66534;52.370;4.832;2023-04-06T01:45:25;101687.97;;;7.17;100.00
69667;BME280;66534;52.370;4.832;2023-04-06T01:45:56;101689.91;;;7.05;100.00
69667;BME280;66534;52.370;4.832;2023-04-06T01:46:26;101687.53;;;6.89;100.00
69667;BME280;66534;52.370;4.832;2023-04-06T01:46:56;101693.78;;;6.79;100.00
69667;BME280;66534;52.370;4.832;2023-04-06T01:47:27;101689.13;;;6.99;100.00
69667;BME280;66534;52.370;4.832;2023-04-06T01:47:57;101692.56;;;7.02;100.00
69667;BME280;66534;52.370;4.832;2023-04-06T01:48:27;101684.97;;;6.88;100.00
69667;BME280;66534;52.370;4.832;2023-04-06T01:48:58;101681.50;;;6.87;100.00
69667;BME280;66534;52.370;4.832;2023-04-06T01:49:28;101683.13;;;6.94;100.00
69667;BME280;66534;52.370;4.832;2023-04-06T01:49:58;101689.88;;;7.08;100.00
69667;BME280;66534;52.370;4.832;2023-04-06T01:50:29;101686.47;;;7.01;100.00
69667;BME280;66534;52.370;4.832;2023-04-06T01:50:59;101687.41;;;6.98;100.00
69667;BME280;66534;52.370;4.832;2023-04-06T01:51:30;101684.09;;;6.87;100.00
69667;BME280;66534;52.370;4.832;2023-04-06T01:52:00;101678.66;;;7.03;100.00
69667;BME280;66534;52.370;4.832;2023-04-06T01:52:31;101687.25;;;7.08;100.00
69667;BME280;66534;52.370;4.832;2023-04-06T01:53:02;101680.38;;;7.04;100.00
69667;BME280;66534;52.370;4.832;2023-04-06T01:53:33;101683.78;;;7.06;100.00
69667;BME280;66534;52.370;4.832;2023-04-06T01:54:03;101678.78;;;6.95;100.00
69667;BME280;66534;52.370;4.832;2023-04-06T01:54:34;101683.13;;;6.93;100.00
69667;BME280;66534;52.370;4.832;2023-04-06T01:55:04;101682.97;;;7.04;100.00
69667;BME280;66534;52.370;4.832;2023-04-06T01:55:35;101673.72;;;6.86;100.00
69667;BME280;66534;52.370;4.832;2023-04-06T01:56:05;101676.25;;;6.90;100.00
69667;BME280;66534;52.370;4.832;2023-04-06T01:56:36;101678.84;;;6.90;100.00
69667;BME280;66534;52.370;4.832;2023-04-06T01:57:06;101681.47;;;6.89;100.00
69667;BME280;66534;52.370;4.832;2023-04-06T01:57:37;101675.94;;;7.09;100.00
69667;BME280;66534;52.370;4.832;2023-04-06T01:58:07;101671.69;;;7.03;100.00
69667;BME280;66534;52.370;4.832;2023-04-06T01:58:38;101682.00;;;7.11;100.00
69667;BME280;66534;52.370;4.832;2023-04-06T01:59:15;101681.16;;;7.09;100.00
69667;BME280;66534;52.370;4.832;2023-04-06T01:59:45;101675.22;;;6.97;100.00
69667;BME280;66534;52.370;4.832;2023-04-06T02:00:16;101680.72;;;6.82;100.00
69667;BME280;66534;52.370;4.832;2023-04-06T02:00:46;101668.38;;;6.92;100.00
69667;BME280;66534;52.370;4.832;2023-04-06T02:01:17;101673.00;;;6.74;100.00
69667;BME280;66534;52.370;4.832;2023-04-06T02:01:47;101672.16;;;6.72;100.00
69667;BME280;66534;52.370;4.832;2023-04-06T02:02:18;101669.47;;;6.77;100.00
69667;BME280;66534;52.370;4.832;2023-04-06T02:02:48;101672.03;;;6.82;100.00
69667;BME280;66534;52.370;4.832;2023-04-06T02:03:19;101668.53;;;6.81;100.00
69667;BME280;66534;52.370;4.832;2023-04-06T02:03:50;101670.22;;;6.85;100.00
69667;BME280;66534;52.370;4.832;2023-04-06T02:04:20;101671.09;;;6.86;100.00
69667;BME280;66534;52.370;4.832;2023-04-06T02:04:51;101663.25;;;6.87;100.00
69667;BME280;66534;52.370;4.832;2023-04-06T02:05:21;101663.28;;;6.84;100.00
69667;BME280;66534;52.370;4.832;2023-04-06T02:05:52;101668.50;;;6.84;100.00
69667;BME280;66534;52.370;4.832;2023-04-06T02:06:22;101666.75;;;6.85;100.00
69667;BME280;66534;52.370;4.832;2023-04-06T02:06:52;101661.13;;;7.09;100.00
69667;BME280;66534;52.370;4.832;2023-04-06T02:07:23;101662.91;;;7.07;100.00
69667;BME280;66534;52.370;4.832;2023-04-06T02:07:53;101669.72;;;7.14;100.00
69667;BME280;66534;52.370;4.832;2023-04-06T02:08:24;101664.59;;;7.10;100.00
69667;BME280;66534;52.370;4.832;2023-04-06T02:08:54;101668.06;;;7.10;100.00
69667;BME280;66534;52.370;4.832;2023-04-06T02:09:24;101666.47;;;7.02;100.00
69667;BME280;66534;52.370;4.832;2023-04-06T02:09:55;101666.63;;;6.92;100.00
69667;BME280;66534;52.370;4.832;2023-04-06T02:10:26;101658.59;;;7.05;100.00
69667;BME280;66534;52.370;4.832;2023-04-06T02:10:56;101659.66;;;6.94;100.00
69667;BME280;66534;52.370;4.832;2023-04-06T02:11:27;101653.59;;;6.92;98.36
69667;BME280;66534;52.370;4.832;2023-04-06T02:11:57;101660.50;;;6.93;100.00
69667;BME280;66534;52.370;4.832;2023-04-06T02:12:27;101659.66;;;6.93;100.00
69667;BME280;66534;52.370;4.832;2023-04-06T02:12:58;101663.03;;;6.99;100.00
69667;BME280;66534;52.370;4.832;2023-04-06T02:13:28;101657.75;;;7.04;100.00
69667;BME280;66534;52.370;4.832;2023-04-06T02:13:58;101660.22;;;7.10;99.07
69667;BME280;66534;52.370;4.832;2023-04-06T02:14:30;101653.13;;;7.20;100.00
69667;BME280;66534;52.370;4.832;2023-04-06T02:15:01;101662.91;;;7.06;100.00
69667;BME280;66534;52.370;4.832;2023-04-06T02:15:31;101661.41;;;6.92;100.00
69667;BME280;66534;52.370;4.832;2023-04-06T02:16:02;101650.09;;;6.93;100.00
69667;BME280;66534;52.370;4.832;2023-04-06T02:16:32;101655.94;;;7.08;100.00
69667;BME280;66534;52.370;4.832;2023-04-06T02:17:03;101660.38;;;7.03;100.00
69667;BME280;66534;52.370;4.832;2023-04-06T02:17:33;101654.22;;;7.07;100.00
69667;BME280;66534;52.370;4.832;2023-04-06T02:18:03;101657.78;;;7.01;99.40
69667;BME280;66534;52.370;4.832;2023-04-06T02:18:34;101653.41;;;7.03;99.33
69667;BME280;66534;52.370;4.832;2023-04-06T02:19:04;101655.28;;;6.95;98.47
69667;BME280;66534;52.370;4.832;2023-04-06T02:19:35;101658.84;;;6.89;100.00
69667;BME280;66534;52.370;4.832;2023-04-06T02:20:05;101659.84;;;6.82;100.00
69667;BME280;66534;52.370;4.832;2023-04-06T02:20:36;101647.66;;;6.81;99.39
69667;BME280;66534;52.370;4.832;2023-04-06T02:21:07;101652.88;;;6.81;100.00
69667;BME280;66534;52.370;4.832;2023-04-06T02:21:37;101650.06;;;6.95;100.00
69667;BME280;66534;52.370;4.832;2023-04-06T02:22:08;101656.03;;;7.02;100.00
69667;BME280;66534;52.370;4.832;2023-04-06T02:22:39;101647.22;;;7.09;100.00
69667;BME280;66534;52.370;4.832;2023-04-06T02:23:10;101643.72;;;7.10;100.00
69667;BME280;66534;52.370;4.832;2023-04-06T02:23:41;101653.34;;;7.08;98.20
69667;BME280;66534;52.370;4.832;2023-04-06T02:24:11;101648.25;;;7.00;98.20
69667;BME280;66534;52.370;4.832;2023-04-06T02:24:41;101644.50;;;7.16;99.86
69667;BME280;66534;52.370;4.832;2023-04-06T02:25:12;101643.63;;;7.16;99.13
69667;BME280;66534;52.370;4.832;2023-04-06T02:25:42;101645.47;;;7.09;100.00
69667;BME280;66534;52.370;4.832;2023-04-06T02:26:13;101640.47;;;6.98;99.03
69667;BME280;66534;52.370;4.832;2023-04-06T02:26:43;101644.97;;;6.87;98.09
69667;BME280;66534;52.370;4.832;2023-04-06T02:27:14;101651.06;;;6.88;99.08
69667;BME280;66534;52.370;4.832;2023-04-06T02:27:45;101645.84;;;6.88;100.00
69667;BME280;66534;52.370;4.832;2023-04-06T02:28:15;101650.19;;;6.87;100.00
69667;BME280;66534;52.370;4.832;2023-04-06T02:28:45;101643.25;;;6.86;100.00
69667;BME280;66534;52.370;4.832;2023-04-06T02:29:16;101647.63;;;6.84;100.00
69667;BME280;66534;52.370;4.832;2023-04-06T02:29:46;101644.19;;;6.82;100.00
69667;BME280;66534;52.370;4.832;2023-04-06T02:30:17;101641.50;;;6.87;100.00
69667;BME280;66534;52.370;4.832;2023-04-06T02:30:47;101647.50;;;6.92;98.35
69667;BME280;66534;52.370;4.832;2023-04-06T02:31:17;101650.28;;;6.81;99.95
69667;BME280;66534;52.370;4.832;2023-04-06T02:31:48;101644.25;;;6.79;98.05
69667;BME280;66534;52.370;4.832;2023-04-06T02:32:18;101645.88;;;6.85;100.00
69667;BME280;66534;52.370;4.832;2023-04-06T02:32:49;101643.16;;;6.94;99.96
69667;BME280;66534;52.370;4.832;2023-04-06T02:33:19;101646.53;;;6.97;99.35
69667;BME280;66534;52.370;4.832;2023-04-06T02:33:50;101642.34;;;6.89;98.48
69667;BME280;66534;52.370;4.832;2023-04-06T02:34:20;101646.81;;;6.82;98.56
69667;BME280;66534;52.370;4.832;2023-04-06T02:34:51;101644.13;;;6.85;97.63
69667;BME280;66534;52.370;4.832;2023-04-06T02:35:21;101645.03;;;6.86;98.56
69667;BME280;66534;52.370;4.832;2023-04-06T02:35:52;101641.59;;;6.81;99.07
69667;BME280;66534;52.370;4.832;2023-04-06T02:36:22;101647.63;;;6.84;99.54
69667;BME280;66534;52.370;4.832;2023-04-06T02:36:53;101641.41;;;6.94;99.80
69667;BME280;66534;52.370;4.832;2023-04-06T02:37:23;101645.69;;;6.98;99.45
69667;BME280;66534;52.370;4.832;2023-04-06T02:37:54;101639.72;;;6.90;99.21
69667;BME280;66534;52.370;4.832;2023-04-06T02:38:24;101642.38;;;6.87;98.27
69667;BME280;66534;52.370;4.832;2023-04-06T02:38:54;101634.31;;;7.01;98.75
69667;BME280;66534;52.370;4.832;2023-04-06T02:39:25;101636.91;;;7.03;99.26
69667;BME280;66534;52.370;4.832;2023-04-06T02:39:55;101638.75;;;6.96;99.24
69667;BME280;66534;52.370;4.832;2023-04-06T02:40:26;101638.88;;;6.88;100.00